sensor_id;sensor_type;location;lat;lon;timestamp;P1;durP1;ratioP1;P2;durP2;ratioP2
29240;SDS011;16268;49.880;8.648;2022-12-13T00:01:48;43.97;;;22.90;;
29240;SDS011;16268;49.880;8.648;2022-12-13T00:04:15;48.73;;;23.57;;
29240;SDS011;16268;49.880;8.648;2022-12-13T00:06:41;46.40;;;23.33;;
29240;SDS011;16268;49.880;8.648;2022-12-13T00:09:08;49.93;;;23.83;;
29240;SDS011;16268;49.880;8.648;2022-12-13T00:11:36;43.80;;;23.67;;
29240;SDS011;16268;49.880;8.648;2022-12-13T00:14:02;46.07;;;23.50;;
29240;SDS011;16268;49.880;8.648;2022-12-13T00:16:27;48.23;;;23.93;;
29240;SDS011;16268;49.880;8.648;2022-12-13T00:18:57;44.47;;;22.83;;
29240;SDS011;16268;49.880;8.648;2022-12-13T00:21:29;46.93;;;23.07;;
29240;SDS011;16268;49.880;8.648;2022-12-13T00:23:57;46.93;;;23.43;;
29240;SDS011;16268;49.880;8.648;2022-12-13T00:26:25;48.57;;;23.27;;
29240;SDS011;16268;49.880;8.648;2022-12-13T00:28:53;49.03;;;24.02;;
29240;SDS011;16268;49.880;8.648;2022-12-13T00:31:19;42.70;;;22.20;;
29240;SDS011;16268;49.880;8.648;2022-12-13T00:33:47;46.20;;;23.03;;
29240;SDS011;16268;49.880;8.648;2022-12-13T00:36:13;45.37;;;22.33;;
29240;SDS011;16268;49.880;8.648;2022-12-13T00:38:39;42.83;;;21.07;;
29240;SDS011;16268;49.880;8.648;2022-12-13T00:41:12;45.20;;;21.83;;
29240;SDS011;16268;49.880;8.648;2022-12-13T00:43:39;46.17;;;22.33;;
29240;SDS011;16268;49.880;8.648;2022-12-13T00:46:07;44.93;;;22.60;;
29240;SDS011;16268;49.880;8.648;2022-12-13T00:48:37;47.17;;;21.93;;
29240;SDS011;16268;49.880;8.648;2022-12-13T00:51:09;41.90;;;21.73;;
29240;SDS011;16268;49.880;8.648;2022-12-13T00:53:36;39.57;;;21.47;;
29240;SDS011;16268;49.880;8.648;2022-12-13T00:56:02;44.27;;;22.37;;
29240;SDS011;16268;49.880;8.648;2022-12-13T00:58:28;42.70;;;21.03;;
29240;SDS011;16268;49.880;8.648;2022-12-13T01:01:01;43.80;;;20.70;;
29240;SDS011;16268;49.880;8.648;2022-12-13T01:03:32;45.10;;;22.03;;
29240;SDS011;16268;49.880;8.648;2022-12-13T01:05:57;43.73;;;21.97;;
29240;SDS011;16268;49.880;8.648;2022-12-13T01:08:24;39.90;;;20.87;;
29240;SDS011;16268;49.880;8.648;2022-12-13T01:10:50;48.27;;;21.53;;
29240;SDS011;16268;49.880;8.648;2022-12-13T01:13:15;45.90;;;21.17;;
29240;SDS011;16268;49.880;8.648;2022-12-13T01:15:41;39.27;;;20.10;;
29240;SDS011;16268;49.880;8.648;2022-12-13T01:18:08;39.60;;;20.80;;
29240;SDS011;16268;49.880;8.648;2022-12-13T01:20:34;44.30;;;20.73;;
29240;SDS011;16268;49.880;8.648;2022-12-13T01:23:00;39.83;;;21.40;;
29240;SDS011;16268;49.880;8.648;2022-12-13T01:25:26;44.07;;;21.93;;
29240;SDS011;16268;49.880;8.648;2022-12-13T01:27:52;46.03;;;20.87;;
29240;SDS011;16268;49.880;8.648;2022-12-13T01:30:17;41.07;;;20.17;;
29240;SDS011;16268;49.880;8.648;2022-12-13T01:32:43;41.37;;;21.60;;
29240;SDS011;16268;49.880;8.648;2022-12-13T01:35:08;41.03;;;20.33;;
29240;SDS011;16268;49.880;8.648;2022-12-13T01:37:34;41.60;;;21.63;;
29240;SDS011;16268;49.880;8.648;2022-12-13T01:40:00;45.20;;;22.13;;
29240;SDS011;16268;49.880;8.648;2022-12-13T01:42:27;40.47;;;20.60;;
29240;SDS011;16268;49.880;8.648;2022-12-13T01:45:13;43.27;;;21.27;;
29240;SDS011;16268;49.880;8.648;2022-12-13T01:47:57;39.90;;;19.77;;
29240;SDS011;16268;49.880;8.648;2022-12-13T01:50:31;42.83;;;21.27;;
29240;SDS011;16268;49.880;8.648;2022-12-13T01:53:01;44.90;;;22.17;;
29240;SDS011;16268;49.880;8.648;2022-12-13T01:55:31;40.57;;;21.10;;
29240;SDS011;16268;49.880;8.648;2022-12-13T02:00:26;44.20;;;21.07;;
29240;SDS011;16268;49.880;8.648;2022-12-13T02:02:52;38.67;;;19.83;;
29240;SDS011;16268;49.880;8.648;2022-12-13T02:05:26;39.90;;;20.13;;
29240;SDS011;16268;49.880;8.648;2022-12-13T02:08:16;50.23;;;21.43;;
29240;SDS011;16268;49.880;8.648;2022-12-13T02:10:43;47.60;;;21.73;;
29240;SDS011;16268;49.880;8.648;2022-12-13T02:13:10;43.13;;;20.97;;
29240;SDS011;16268;49.880;8.648;2022-12-13T02:16:00;41.57;;;20.10;;
29240;SDS011;16268;49.880;8.648;2022-12-13T02:24:39;45.07;;;21.87;;
29240;SDS011;16268;49.880;8.648;2022-12-13T02:30:33;42.77;;;20.47;;
29240;SDS011;16268;49.880;8.648;2022-12-13T02:33:12;39.73;;;20.13;;
29240;SDS011;16268;49.880;8.648;2022-12-13T02:38:32;41.90;;;21.33;;
29240;SDS011;16268;49.880;8.648;2022-12-13T02:41:27;43.40;;;21.43;;
29240;SDS011;16268;49.880;8.648;2022-12-13T02:46:34;41.97;;;20.90;;
29240;SDS011;16268;49.880;8.648;2022-12-13T02:49:05;40.77;;;21.13;;
29240;SDS011;16268;49.880;8.648;2022-12-13T02:51:33;42.77;;;21.80;;
29240;SDS011;16268;49.880;8.648;2022-12-13T02:54:00;42.20;;;21.27;;
29240;SDS011;16268;49.880;8.648;2022-12-13T02:56:26;43.60;;;21.13;;
29240;SDS011;16268;49.880;8.648;2022-12-13T02:58:52;43.53;;;21.90;;
29240;SDS011;16268;49.880;8.648;2022-12-13T03:04:10;45.50;;;21.53;;
29240;SDS011;16268;49.880;8.648;2022-12-13T03:17:42;46.47;;;21.57;;
29240;SDS011;16268;49.880;8.648;2022-12-13T03:20:15;45.73;;;21.23;;
29240;SDS011;16268;49.880;8.648;2022-12-13T03:22:43;44.33;;;21.60;;
29240;SDS011;16268;49.880;8.648;2022-12-13T03:25:08;42.77;;;20.80;;
29240;SDS011;16268;49.880;8.648;2022-12-13T03:27:34;47.17;;;21.63;;
29240;SDS011;16268;49.880;8.648;2022-12-13T03:30:00;43.47;;;21.53;;
29240;SDS011;16268;49.880;8.648;2022-12-13T03:32:25;47.20;;;22.27;;
29240;SDS011;16268;49.880;8.648;2022-12-13T03:34:51;47.77;;;21.67;;
29240;SDS011;16268;49.880;8.648;2022-12-13T03:37:16;44.10;;;22.13;;
29240;SDS011;16268;49.880;8.648;2022-12-13T03:39:42;48.63;;;22.90;;
29240;SDS011;16268;49.880;8.648;2022-12-13T03:42:07;48.23;;;22.17;;
29240;SDS011;16268;49.880;8.648;2022-12-13T03:44:33;47.73;;;20.70;;
29240;SDS011;16268;49.880;8.648;2022-12-13T03:46:58;46.50;;;21.37;;
29240;SDS011;16268;49.880;8.648;2022-12-13T03:49:24;47.77;;;22.70;;
29240;SDS011;16268;49.880;8.648;2022-12-13T03:51:49;44.53;;;21.83;;
29240;SDS011;16268;49.880;8.648;2022-12-13T03:54:15;46.73;;;21.00;;
29240;SDS011;16268;49.880;8.648;2022-12-13T03:56:40;44.40;;;21.00;;
29240;SDS011;16268;49.880;8.648;2022-12-13T03:59:06;46.67;;;22.17;;
29240;SDS011;16268;49.880;8.648;2022-12-13T04:01:32;45.30;;;21.03;;
29240;SDS011;16268;49.880;8.648;2022-12-13T04:03:57;45.07;;;22.20;;
29240;SDS011;16268;49.880;8.648;2022-12-13T04:06:23;46.53;;;22.67;;
29240;SDS011;16268;49.880;8.648;2022-12-13T04:08:48;41.50;;;20.80;;
29240;SDS011;16268;49.880;8.648;2022-12-13T04:11:14;45.57;;;21.23;;
29240;SDS011;16268;49.880;8.648;2022-12-13T04:13:58;49.73;;;22.87;;
29240;SDS011;16268;49.880;8.648;2022-12-13T04:16:24;47.47;;;23.77;;
29240;SDS011;16268;49.880;8.648;2022-12-13T04:18:49;46.73;;;21.77;;
29240;SDS011;16268;49.880;8.648;2022-12-13T04:21:15;48.03;;;22.33;;
29240;SDS011;16268;49.880;8.648;2022-12-13T04:23:40;45.30;;;21.33;;
29240;SDS011;16268;49.880;8.648;2022-12-13T04:26:06;47.97;;;21.63;;
29240;SDS011;16268;49.880;8.648;2022-12-13T04:28:32;45.67;;;21.77;;
29240;SDS011;16268;49.880;8.648;2022-12-13T04:30:57;50.53;;;22.17;;
29240;SDS011;16268;49.880;8.648;2022-12-13T04:33:23;45.50;;;22.63;;
29240;SDS011;16268;49.880;8.648;2022-12-13T04:35:49;45.20;;;20.80;;
29240;SDS011;16268;49.880;8.648;2022-12-13T04:38:15;48.97;;;23.47;;
29240;SDS011;16268;49.880;8.648;2022-12-13T04:40:41;43.47;;;21.90;;
29240;SDS011;16268;49.880;8.648;2022-12-13T04:43:07;48.50;;;22.13;;
29240;SDS011;16268;49.880;8.648;2022-12-13T04:45:32;48.37;;;23.67;;
29240;SDS011;16268;49.880;8.648;2022-12-13T04:47:58;47.87;;;22.90;;
29240;SDS011;16268;49.880;8.648;2022-12-13T04:50:23;48.83;;;22.53;;
29240;SDS011;16268;49.880;8.648;2022-12-13T04:52:49;48.83;;;22.83;;
29240;SDS011;16268;49.880;8.648;2022-12-13T04:55:14;50.97;;;23.00;;
29240;SDS011;16268;49.880;8.648;2022-12-13T04:57:40;52.40;;;24.53;;
29240;SDS011;16268;49.880;8.648;2022-12-13T05:00:06;50.87;;;23.60;;
29240;SDS011;16268;49.880;8.648;2022-12-13T05:02:33;50.37;;;22.87;;
29240;SDS011;16268;49.880;8.648;2022-12-13T05:04:59;54.10;;;24.60;;
29240;SDS011;16268;49.880;8.648;2022-12-13T05:07:25;51.43;;;23.93;;
29240;SDS011;16268;49.880;8.648;2022-12-13T05:09:51;52.50;;;23.70;;
29240;SDS011;16268;49.880;8.648;2022-12-13T05:12:17;50.73;;;23.90;;
29240;SDS011;16268;49.880;8.648;2022-12-13T05:14:43;52.50;;;24.20;;
29240;SDS011;16268;49.880;8.648;2022-12-13T05:17:08;55.27;;;23.07;;
29240;SDS011;16268;49.880;8.648;2022-12-13T05:19:34;46.47;;;23.20;;
29240;SDS011;16268;49.880;8.648;2022-12-13T05:21:59;51.73;;;24.30;;
29240;SDS011;16268;49.880;8.648;2022-12-13T05:24:25;48.83;;;23.57;;
29240;SDS011;16268;49.880;8.648;2022-12-13T05:26:50;56.80;;;24.80;;
29240;SDS011;16268;49.880;8.648;2022-12-13T05:29:16;51.83;;;23.87;;
29240;SDS011;16268;49.880;8.648;2022-12-13T05:31:42;49.23;;;22.53;;
29240;SDS011;16268;49.880;8.648;2022-12-13T05:34:07;56.47;;;24.27;;
29240;SDS011;16268;49.880;8.648;2022-12-13T05:36:33;54.67;;;23.80;;
29240;SDS011;16268;49.880;8.648;2022-12-13T05:38:59;52.60;;;23.60;;
29240;SDS011;16268;49.880;8.648;2022-12-13T05:41:31;50.60;;;23.67;;
29240;SDS011;16268;49.880;8.648;2022-12-13T05:43:59;52.87;;;24.13;;
29240;SDS011;16268;49.880;8.648;2022-12-13T05:46:24;48.47;;;23.10;;
29240;SDS011;16268;49.880;8.648;2022-12-13T05:48:50;51.37;;;24.13;;
29240;SDS011;16268;49.880;8.648;2022-12-13T05:51:15;51.60;;;23.30;;
29240;SDS011;16268;49.880;8.648;2022-12-13T05:53:41;51.33;;;23.60;;
29240;SDS011;16268;49.880;8.648;2022-12-13T05:56:07;53.07;;;23.80;;
29240;SDS011;16268;49.880;8.648;2022-12-13T05:58:35;53.97;;;23.60;;
29240;SDS011;16268;49.880;8.648;2022-12-13T06:01:09;48.50;;;23.90;;
29240;SDS011;16268;49.880;8.648;2022-12-13T06:03:36;50.80;;;23.60;;
29240;SDS011;16268;49.880;8.648;2022-12-13T06:06:03;51.40;;;23.80;;
29240;SDS011;16268;49.880;8.648;2022-12-13T06:08:30;55.77;;;23.90;;
29240;SDS011;16268;49.880;8.648;2022-12-13T06:10:56;52.07;;;23.70;;
29240;SDS011;16268;49.880;8.648;2022-12-13T06:13:23;51.03;;;22.67;;
29240;SDS011;16268;49.880;8.648;2022-12-13T06:15:49;50.40;;;23.80;;
29240;SDS011;16268;49.880;8.648;2022-12-13T06:18:15;56.87;;;23.63;;
29240;SDS011;16268;49.880;8.648;2022-12-13T06:20:40;50.80;;;23.13;;
29240;SDS011;16268;49.880;8.648;2022-12-13T06:23:06;50.77;;;22.63;;
29240;SDS011;16268;49.880;8.648;2022-12-13T06:25:31;47.70;;;22.47;;
29240;SDS011;16268;49.880;8.648;2022-12-13T06:27:57;50.70;;;22.70;;
29240;SDS011;16268;49.880;8.648;2022-12-13T06:30:23;47.17;;;21.97;;
29240;SDS011;16268;49.880;8.648;2022-12-13T06:32:49;49.13;;;21.63;;
29240;SDS011;16268;49.880;8.648;2022-12-13T06:35:14;47.33;;;22.60;;
29240;SDS011;16268;49.880;8.648;2022-12-13T06:37:40;46.70;;;21.80;;
29240;SDS011;16268;49.880;8.648;2022-12-13T06:40:06;51.57;;;23.70;;
29240;SDS011;16268;49.880;8.648;2022-12-13T06:42:32;47.60;;;22.57;;
29240;SDS011;16268;49.880;8.648;2022-12-13T06:44:57;47.00;;;21.73;;
29240;SDS011;16268;49.880;8.648;2022-12-13T06:47:24;50.67;;;22.23;;
29240;SDS011;16268;49.880;8.648;2022-12-13T06:49:50;44.23;;;21.67;;
29240;SDS011;16268;49.880;8.648;2022-12-13T06:52:15;66.60;;;23.07;;
29240;SDS011;16268;49.880;8.648;2022-12-13T06:54:41;49.43;;;22.87;;
29240;SDS011;16268;49.880;8.648;2022-12-13T06:57:07;50.90;;;22.80;;
29240;SDS011;16268;49.880;8.648;2022-12-13T06:59:34;53.93;;;23.73;;
29240;SDS011;16268;49.880;8.648;2022-12-13T07:02:00;53.97;;;23.67;;
29240;SDS011;16268;49.880;8.648;2022-12-13T07:04:25;54.47;;;24.37;;
29240;SDS011;16268;49.880;8.648;2022-12-13T07:06:51;56.03;;;23.07;;
29240;SDS011;16268;49.880;8.648;2022-12-13T07:09:17;49.50;;;22.60;;
29240;SDS011;16268;49.880;8.648;2022-12-13T07:11:45;53.07;;;22.37;;
29240;SDS011;16268;49.880;8.648;2022-12-13T07:14:11;49.13;;;23.02;;
29240;SDS011;16268;49.880;8.648;2022-12-13T07:16:36;52.73;;;23.53;;
29240;SDS011;16268;49.880;8.648;2022-12-13T07:19:02;44.50;;;22.10;;
29240;SDS011;16268;49.880;8.648;2022-12-13T07:21:29;44.93;;;21.33;;
29240;SDS011;16268;49.880;8.648;2022-12-13T07:24:00;47.37;;;22.47;;
29240;SDS011;16268;49.880;8.648;2022-12-13T07:26:29;50.90;;;22.17;;
29240;SDS011;16268;49.880;8.648;2022-12-13T07:28:57;49.07;;;22.07;;
29240;SDS011;16268;49.880;8.648;2022-12-13T07:31:33;47.43;;;22.33;;
29240;SDS011;16268;49.880;8.648;2022-12-13T07:34:04;48.13;;;22.90;;
29240;SDS011;16268;49.880;8.648;2022-12-13T07:36:32;51.13;;;21.00;;
29240;SDS011;16268;49.880;8.648;2022-12-13T07:39:01;48.43;;;22.37;;
29240;SDS011;16268;49.880;8.648;2022-12-13T07:41:29;46.47;;;21.07;;
29240;SDS011;16268;49.880;8.648;2022-12-13T07:43:55;45.30;;;20.83;;
29240;SDS011;16268;49.880;8.648;2022-12-13T07:46:21;42.40;;;20.40;;
29240;SDS011;16268;49.880;8.648;2022-12-13T07:48:47;48.17;;;21.20;;
29240;SDS011;16268;49.880;8.648;2022-12-13T07:51:13;51.90;;;21.00;;
29240;SDS011;16268;49.880;8.648;2022-12-13T07:53:39;46.80;;;21.17;;
29240;SDS011;16268;49.880;8.648;2022-12-13T07:56:09;44.23;;;21.00;;
29240;SDS011;16268;49.880;8.648;2022-12-13T07:58:35;47.33;;;20.77;;
29240;SDS011;16268;49.880;8.648;2022-12-13T08:01:02;51.93;;;22.37;;
29240;SDS011;16268;49.880;8.648;2022-12-13T08:06:06;49.50;;;21.40;;
29240;SDS011;16268;49.880;8.648;2022-12-13T08:08:33;45.80;;;20.77;;
29240;SDS011;16268;49.880;8.648;2022-12-13T08:10:59;44.53;;;20.80;;
29240;SDS011;16268;49.880;8.648;2022-12-13T08:13:32;49.47;;;22.87;;
29240;SDS011;16268;49.880;8.648;2022-12-13T08:15:59;46.77;;;21.47;;
29240;SDS011;16268;49.880;8.648;2022-12-13T08:18:27;46.77;;;21.00;;
29240;SDS011;16268;49.880;8.648;2022-12-13T08:20:56;48.67;;;20.43;;
29240;SDS011;16268;49.880;8.648;2022-12-13T08:23:23;46.17;;;21.13;;
29240;SDS011;16268;49.880;8.648;2022-12-13T08:25:49;42.97;;;19.87;;
29240;SDS011;16268;49.880;8.648;2022-12-13T08:28:18;44.87;;;21.63;;
29240;SDS011;16268;49.880;8.648;2022-12-13T08:30:44;43.63;;;20.37;;
29240;SDS011;16268;49.880;8.648;2022-12-13T08:33:10;49.33;;;22.10;;
29240;SDS011;16268;49.880;8.648;2022-12-13T08:35:36;44.83;;;21.37;;
29240;SDS011;16268;49.880;8.648;2022-12-13T08:38:01;49.00;;;20.90;;
29240;SDS011;16268;49.880;8.648;2022-12-13T08:40:27;48.27;;;21.60;;
29240;SDS011;16268;49.880;8.648;2022-12-13T08:42:56;48.77;;;21.77;;
29240;SDS011;16268;49.880;8.648;2022-12-13T08:45:22;47.47;;;23.10;;
29240;SDS011;16268;49.880;8.648;2022-12-13T08:47:51;46.92;;;24.20;;
29240;SDS011;16268;49.880;8.648;2022-12-13T08:50:17;53.93;;;25.60;;
29240;SDS011;16268;49.880;8.648;2022-12-13T08:52:43;48.63;;;22.83;;
29240;SDS011;16268;49.880;8.648;2022-12-13T08:55:13;45.43;;;22.70;;
29240;SDS011;16268;49.880;8.648;2022-12-13T08:57:39;45.83;;;22.73;;
29240;SDS011;16268;49.880;8.648;2022-12-13T09:00:07;43.53;;;22.43;;
29240;SDS011;16268;49.880;8.648;2022-12-13T09:02:36;48.03;;;22.70;;
29240;SDS011;16268;49.880;8.648;2022-12-13T09:05:02;47.67;;;23.03;;
29240;SDS011;16268;49.880;8.648;2022-12-13T09:07:28;53.43;;;24.53;;
29240;SDS011;16268;49.880;8.648;2022-12-13T09:09:53;50.37;;;23.13;;
29240;SDS011;16268;49.880;8.648;2022-12-13T09:12:19;46.73;;;22.90;;
29240;SDS011;16268;49.880;8.648;2022-12-13T09:14:44;45.37;;;22.43;;
29240;SDS011;16268;49.880;8.648;2022-12-13T09:17:10;42.73;;;21.13;;
29240;SDS011;16268;49.880;8.648;2022-12-13T09:19:37;43.67;;;21.73;;
29240;SDS011;16268;49.880;8.648;2022-12-13T09:22:04;42.80;;;21.40;;
29240;SDS011;16268;49.880;8.648;2022-12-13T09:24:29;41.53;;;20.77;;
29240;SDS011;16268;49.880;8.648;2022-12-13T09:26:55;40.90;;;20.53;;
29240;SDS011;16268;49.880;8.648;2022-12-13T09:29:21;38.67;;;18.67;;
29240;SDS011;16268;49.880;8.648;2022-12-13T09:31:46;38.60;;;20.00;;
29240;SDS011;16268;49.880;8.648;2022-12-13T09:34:12;34.93;;;19.27;;
29240;SDS011;16268;49.880;8.648;2022-12-13T09:36:37;38.40;;;18.90;;
29240;SDS011;16268;49.880;8.648;2022-12-13T09:39:03;38.07;;;19.07;;
29240;SDS011;16268;49.880;8.648;2022-12-13T09:44:10;34.07;;;19.10;;
29240;SDS011;16268;49.880;8.648;2022-12-13T09:46:46;36.33;;;18.50;;
29240;SDS011;16268;49.880;8.648;2022-12-13T09:49:17;36.83;;;19.03;;
29240;SDS011;16268;49.880;8.648;2022-12-13T09:51:54;33.53;;;18.60;;
29240;SDS011;16268;49.880;8.648;2022-12-13T09:54:22;33.70;;;18.13;;
29240;SDS011;16268;49.880;8.648;2022-12-13T09:56:49;36.50;;;17.90;;
29240;SDS011;16268;49.880;8.648;2022-12-13T09:59:25;33.00;;;17.67;;
29240;SDS011;16268;49.880;8.648;2022-12-13T10:01:55;36.78;;;18.15;;
29240;SDS011;16268;49.880;8.648;2022-12-13T10:04:26;32.17;;;17.73;;
29240;SDS011;16268;49.880;8.648;2022-12-13T10:06:52;34.80;;;18.13;;
29240;SDS011;16268;49.880;8.648;2022-12-13T10:09:20;37.20;;;19.23;;
29240;SDS011;16268;49.880;8.648;2022-12-13T10:11:50;31.23;;;16.73;;
29240;SDS011;16268;49.880;8.648;2022-12-13T10:14:20;33.73;;;16.83;;
29240;SDS011;16268;49.880;8.648;2022-12-13T10:19:16;29.70;;;15.93;;
29240;SDS011;16268;49.880;8.648;2022-12-13T10:21:46;31.43;;;15.93;;
29240;SDS011;16268;49.880;8.648;2022-12-13T10:24:26;28.83;;;16.40;;
29240;SDS011;16268;49.880;8.648;2022-12-13T10:26:58;32.37;;;17.17;;
29240;SDS011;16268;49.880;8.648;2022-12-13T10:32:29;29.98;;;16.42;;
29240;SDS011;16268;49.880;8.648;2022-12-13T10:34:59;31.03;;;16.10;;
29240;SDS011;16268;49.880;8.648;2022-12-13T10:37:35;30.50;;;15.73;;
29240;SDS011;16268;49.880;8.648;2022-12-13T10:40:01;29.23;;;15.83;;
29240;SDS011;16268;49.880;8.648;2022-12-13T10:42:27;27.93;;;16.27;;
29240;SDS011;16268;49.880;8.648;2022-12-13T10:45:12;26.03;;;15.53;;
29240;SDS011;16268;49.880;8.648;2022-12-13T10:47:40;27.93;;;15.67;;
29240;SDS011;16268;49.880;8.648;2022-12-13T10:50:14;25.93;;;14.03;;
29240;SDS011;16268;49.880;8.648;2022-12-13T10:52:47;27.87;;;14.40;;
29240;SDS011;16268;49.880;8.648;2022-12-13T10:57:58;28.83;;;14.70;;
29240;SDS011;16268;49.880;8.648;2022-12-13T11:00:30;28.33;;;15.07;;
29240;SDS011;16268;49.880;8.648;2022-12-13T11:03:00;31.30;;;16.90;;
29240;SDS011;16268;49.880;8.648;2022-12-13T11:05:27;30.80;;;15.70;;
29240;SDS011;16268;49.880;8.648;2022-12-13T11:07:54;26.97;;;15.63;;
29240;SDS011;16268;49.880;8.648;2022-12-13T11:10:36;27.73;;;15.40;;
29240;SDS011;16268;49.880;8.648;2022-12-13T11:13:03;30.63;;;15.37;;
29240;SDS011;16268;49.880;8.648;2022-12-13T11:15:30;27.87;;;14.80;;
29240;SDS011;16268;49.880;8.648;2022-12-13T11:18:00;27.37;;;14.90;;
29240;SDS011;16268;49.880;8.648;2022-12-13T11:20:30;28.33;;;15.83;;
29240;SDS011;16268;49.880;8.648;2022-12-13T11:25:53;29.07;;;15.57;;
29240;SDS011;16268;49.880;8.648;2022-12-13T11:41:59;28.50;;;14.87;;
29240;SDS011;16268;49.880;8.648;2022-12-13T11:47:17;31.13;;;14.40;;
29240;SDS011;16268;49.880;8.648;2022-12-13T11:49:48;28.33;;;15.00;;
29240;SDS011;16268;49.880;8.648;2022-12-13T11:52:16;26.80;;;14.40;;
29240;SDS011;16268;49.880;8.648;2022-12-13T11:57:29;28.67;;;15.57;;
29240;SDS011;16268;49.880;8.648;2022-12-13T12:00:45;26.07;;;14.47;;
29240;SDS011;16268;49.880;8.648;2022-12-13T12:02:54;25.47;;;14.47;;
29240;SDS011;16268;49.880;8.648;2022-12-13T12:05:29;28.97;;;15.37;;
29240;SDS011;16268;49.880;8.648;2022-12-13T12:07:58;26.20;;;14.33;;
29240;SDS011;16268;49.880;8.648;2022-12-13T12:10:46;26.00;;;15.05;;
29240;SDS011;16268;49.880;8.648;2022-12-13T12:13:22;25.93;;;14.70;;
29240;SDS011;16268;49.880;8.648;2022-12-13T12:18:43;25.70;;;14.70;;
29240;SDS011;16268;49.880;8.648;2022-12-13T12:21:14;26.27;;;14.47;;
29240;SDS011;16268;49.880;8.648;2022-12-13T12:24:09;27.33;;;14.70;;
29240;SDS011;16268;49.880;8.648;2022-12-13T12:26:47;27.33;;;13.90;;
29240;SDS011;16268;49.880;8.648;2022-12-13T12:37:52;29.90;;;14.00;;
29240;SDS011;16268;49.880;8.648;2022-12-13T12:40:48;21.93;;;11.80;;
29240;SDS011;16268;49.880;8.648;2022-12-13T12:43:21;23.43;;;12.37;;
29240;SDS011;16268;49.880;8.648;2022-12-13T13:00:01;21.77;;;11.03;;
29240;SDS011;16268;49.880;8.648;2022-12-13T13:07:55;23.87;;;12.13;;
29240;SDS011;16268;49.880;8.648;2022-12-13T13:10:31;25.47;;;12.73;;
29240;SDS011;16268;49.880;8.648;2022-12-13T13:12:57;24.00;;;13.20;;
29240;SDS011;16268;49.880;8.648;2022-12-13T13:17:58;22.47;;;12.03;;
29240;SDS011;16268;49.880;8.648;2022-12-13T13:20:24;24.83;;;12.03;;
29240;SDS011;16268;49.880;8.648;2022-12-13T13:22:52;24.00;;;12.33;;
29240;SDS011;16268;49.880;8.648;2022-12-13T13:30:30;21.47;;;11.43;;
29240;SDS011;16268;49.880;8.648;2022-12-13T13:32:57;20.17;;;10.63;;
29240;SDS011;16268;49.880;8.648;2022-12-13T13:48:20;20.93;;;10.80;;
29240;SDS011;16268;49.880;8.648;2022-12-13T13:51:19;19.97;;;10.93;;
29240;SDS011;16268;49.880;8.648;2022-12-13T14:02:37;18.83;;;10.90;;
29240;SDS011;16268;49.880;8.648;2022-12-13T14:24:51;22.20;;;11.43;;
29240;SDS011;16268;49.880;8.648;2022-12-13T14:27:44;20.27;;;10.33;;
29240;SDS011;16268;49.880;8.648;2022-12-13T14:30:28;18.27;;;10.27;;
29240;SDS011;16268;49.880;8.648;2022-12-13T14:32:54;17.50;;;9.90;;
29240;SDS011;16268;49.880;8.648;2022-12-13T14:35:24;19.30;;;10.37;;
29240;SDS011;16268;49.880;8.648;2022-12-13T14:38:03;17.00;;;9.80;;
29240;SDS011;16268;49.880;8.648;2022-12-13T14:40:31;18.90;;;10.20;;
29240;SDS011;16268;49.880;8.648;2022-12-13T14:42:57;19.73;;;10.43;;
29240;SDS011;16268;49.880;8.648;2022-12-13T14:45:27;21.93;;;10.47;;
29240;SDS011;16268;49.880;8.648;2022-12-13T14:47:54;17.30;;;9.73;;
29240;SDS011;16268;49.880;8.648;2022-12-13T14:50:22;19.00;;;9.80;;
29240;SDS011;16268;49.880;8.648;2022-12-13T14:52:49;21.97;;;11.33;;
29240;SDS011;16268;49.880;8.648;2022-12-13T14:55:26;20.73;;;10.13;;
29240;SDS011;16268;49.880;8.648;2022-12-13T14:57:53;17.17;;;9.50;;
29240;SDS011;16268;49.880;8.648;2022-12-13T15:02:56;18.33;;;10.47;;
29240;SDS011;16268;49.880;8.648;2022-12-13T15:08:16;18.20;;;10.00;;
29240;SDS011;16268;49.880;8.648;2022-12-13T15:10:56;18.35;;;9.77;;
29240;SDS011;16268;49.880;8.648;2022-12-13T15:15:58;19.90;;;10.50;;
29240;SDS011;16268;49.880;8.648;2022-12-13T15:18:27;17.13;;;10.35;;
29240;SDS011;16268;49.880;8.648;2022-12-13T15:20:54;19.00;;;9.57;;
29240;SDS011;16268;49.880;8.648;2022-12-13T15:23:31;20.67;;;10.53;;
29240;SDS011;16268;49.880;8.648;2022-12-13T15:26:00;18.93;;;11.03;;
29240;SDS011;16268;49.880;8.648;2022-12-13T15:28:35;21.30;;;10.90;;
29240;SDS011;16268;49.880;8.648;2022-12-13T15:31:04;21.17;;;10.48;;
29240;SDS011;16268;49.880;8.648;2022-12-13T15:33:30;22.60;;;11.37;;
29240;SDS011;16268;49.880;8.648;2022-12-13T15:36:01;19.97;;;10.23;;
29240;SDS011;16268;49.880;8.648;2022-12-13T15:38:30;22.77;;;11.93;;
29240;SDS011;16268;49.880;8.648;2022-12-13T15:40:55;23.13;;;11.87;;
29240;SDS011;16268;49.880;8.648;2022-12-13T15:43:22;22.90;;;12.57;;
29240;SDS011;16268;49.880;8.648;2022-12-13T15:45:59;22.60;;;12.17;;
29240;SDS011;16268;49.880;8.648;2022-12-13T15:48:30;21.07;;;11.07;;
29240;SDS011;16268;49.880;8.648;2022-12-13T15:51:31;20.90;;;11.00;;
29240;SDS011;16268;49.880;8.648;2022-12-13T15:59:35;22.83;;;10.97;;
29240;SDS011;16268;49.880;8.648;2022-12-13T16:02:01;22.17;;;11.20;;
29240;SDS011;16268;49.880;8.648;2022-12-13T16:04:29;21.03;;;11.77;;
29240;SDS011;16268;49.880;8.648;2022-12-13T16:06:57;20.05;;;10.70;;
29240;SDS011;16268;49.880;8.648;2022-12-13T16:09:25;24.07;;;11.67;;
29240;SDS011;16268;49.880;8.648;2022-12-13T16:12:03;23.08;;;11.38;;
29240;SDS011;16268;49.880;8.648;2022-12-13T16:16:57;20.00;;;11.00;;
29240;SDS011;16268;49.880;8.648;2022-12-13T16:19:29;21.77;;;11.83;;
29240;SDS011;16268;49.880;8.648;2022-12-13T16:21:56;22.73;;;11.60;;
29240;SDS011;16268;49.880;8.648;2022-12-13T16:24:21;22.90;;;11.27;;
29240;SDS011;16268;49.880;8.648;2022-12-13T16:26:47;24.40;;;11.83;;
29240;SDS011;16268;49.880;8.648;2022-12-13T16:29:17;26.13;;;12.43;;
29240;SDS011;16268;49.880;8.648;2022-12-13T16:31:45;22.97;;;12.13;;
29240;SDS011;16268;49.880;8.648;2022-12-13T16:34:12;27.83;;;12.00;;
29240;SDS011;16268;49.880;8.648;2022-12-13T16:39:09;23.00;;;11.60;;
29240;SDS011;16268;49.880;8.648;2022-12-13T16:41:39;24.33;;;11.80;;
29240;SDS011;16268;49.880;8.648;2022-12-13T16:44:08;22.43;;;11.80;;
29240;SDS011;16268;49.880;8.648;2022-12-13T16:46:44;23.47;;;12.03;;
29240;SDS011;16268;49.880;8.648;2022-12-13T16:49:22;20.77;;;11.97;;
29240;SDS011;16268;49.880;8.648;2022-12-13T16:51:50;24.23;;;11.93;;
29240;SDS011;16268;49.880;8.648;2022-12-13T16:54:16;23.10;;;12.10;;
29240;SDS011;16268;49.880;8.648;2022-12-13T16:56:43;22.97;;;12.80;;
29240;SDS011;16268;49.880;8.648;2022-12-13T16:59:13;24.17;;;12.10;;
29240;SDS011;16268;49.880;8.648;2022-12-13T17:01:40;25.87;;;12.07;;
29240;SDS011;16268;49.880;8.648;2022-12-13T17:04:08;23.67;;;12.20;;
29240;SDS011;16268;49.880;8.648;2022-12-13T17:06:35;23.88;;;13.23;;
29240;SDS011;16268;49.880;8.648;2022-12-13T17:09:01;23.97;;;12.03;;
29240;SDS011;16268;49.880;8.648;2022-12-13T17:11:27;25.53;;;12.57;;
29240;SDS011;16268;49.880;8.648;2022-12-13T17:13:52;27.37;;;12.70;;
29240;SDS011;16268;49.880;8.648;2022-12-13T17:16:18;24.27;;;12.67;;